sensor_id;sensor_type;location;lat;lon;timestamp;P1;durP1;ratioP1;P2;durP2;ratioP2
74495;SDS011;62979;55.720;37.606;2023-08-30T00:01:10;17.65;;;10.05;;
74495;SDS011;62979;55.720;37.606;2023-08-30T00:03:37;13.80;;;10.32;;
74495;SDS011;62979;55.720;37.606;2023-08-30T00:06:04;15.50;;;10.32;;
74495;SDS011;62979;55.720;37.606;2023-08-30T00:08:33;15.43;;;9.48;;
74495;SDS011;62979;55.720;37.606;2023-08-30T00:11:01;15.82;;;10.07;;
74495;SDS011;62979;55.720;37.606;2023-08-30T00:13:31;12.93;;;8.93;;
74495;SDS011;62979;55.720;37.606;2023-08-30T00:15:59;11.88;;;8.77;;
74495;SDS011;62979;55.720;37.606;2023-08-30T00:18:27;13.73;;;8.95;;
74495;SDS011;62979;55.720;37.606;2023-08-30T00:20:54;13.57;;;9.30;;
74495;SDS011;62979;55.720;37.606;2023-08-30T00:23:21;12.75;;;8.20;;
74495;SDS011;62979;55.720;37.606;2023-08-30T00:25:48;10.75;;;7.80;;
74495;SDS011;62979;55.720;37.606;2023-08-30T00:28:15;10.75;;;7.28;;
74495;SDS011;62979;55.720;37.606;2023-08-30T00:30:44;10.05;;;6.93;;
74495;SDS011;62979;55.720;37.606;2023-08-30T00:33:11;11.20;;;7.07;;
74495;SDS011;62979;55.720;37.606;2023-08-30T00:35:38;10.95;;;6.57;;
74495;SDS011;62979;55.720;37.606;2023-08-30T00:38:05;11.07;;;6.38;;
74495;SDS011;62979;55.720;37.606;2023-08-30T00:40:37;11.98;;;7.43;;
74495;SDS011;62979;55.720;37.606;2023-08-30T00:45:32;9.15;;;5.90;;
74495;SDS011;62979;55.720;37.606;2023-08-30T00:48:02;9.00;;;5.93;;
74495;SDS011;62979;55.720;37.606;2023-08-30T00:50:30;8.50;;;6.28;;
74495;SDS011;62979;55.720;37.606;2023-08-30T00:52:58;8.70;;;6.03;;
74495;SDS011;62979;55.720;37.606;2023-08-30T00:55:30;8.00;;;5.38;;
74495;SDS011;62979;55.720;37.606;2023-08-30T00:57:58;12.43;;;6.25;;
74495;SDS011;62979;55.720;37.606;2023-08-30T01:00:27;9.93;;;6.15;;
74495;SDS011;62979;55.720;37.606;2023-08-30T01:02:54;8.25;;;6.05;;
74495;SDS011;62979;55.720;37.606;2023-08-30T01:05:22;7.07;;;5.57;;
74495;SDS011;62979;55.720;37.606;2023-08-30T01:07:50;12.90;;;6.50;;
74495;SDS011;62979;55.720;37.606;2023-08-30T01:10:18;8.07;;;5.70;;
74495;SDS011;62979;55.720;37.606;2023-08-30T01:13:11;7.05;;;4.93;;
74495;SDS011;62979;55.720;37.606;2023-08-30T01:15:46;6.55;;;4.60;;
74495;SDS011;62979;55.720;37.606;2023-08-30T01:18:14;8.35;;;5.82;;
74495;SDS011;62979;55.720;37.606;2023-08-30T01:20:46;9.13;;;5.47;;
74495;SDS011;62979;55.720;37.606;2023-08-30T01:23:19;8.80;;;5.47;;
74495;SDS011;62979;55.720;37.606;2023-08-30T01:25:57;7.35;;;5.13;;
74495;SDS011;62979;55.720;37.606;2023-08-30T01:28:35;6.32;;;4.50;;
74495;SDS011;62979;55.720;37.606;2023-08-30T01:31:06;8.30;;;4.97;;
74495;SDS011;62979;55.720;37.606;2023-08-30T01:33:35;6.43;;;4.72;;
74495;SDS011;62979;55.720;37.606;2023-08-30T01:36:04;7.40;;;5.28;;
74495;SDS011;62979;55.720;37.606;2023-08-30T01:38:32;7.22;;;5.03;;
74495;SDS011;62979;55.720;37.606;2023-08-30T01:41:01;6.93;;;5.03;;
74495;SDS011;62979;55.720;37.606;2023-08-30T01:43:28;6.68;;;4.70;;
74495;SDS011;62979;55.720;37.606;2023-08-30T01:45:59;7.90;;;4.38;;
74495;SDS011;62979;55.720;37.606;2023-08-30T01:48:29;6.35;;;4.65;;
74495;SDS011;62979;55.720;37.606;2023-08-30T01:51:00;5.28;;;4.35;;
74495;SDS011;62979;55.720;37.606;2023-08-30T01:53:27;6.65;;;4.75;;
74495;SDS011;62979;55.720;37.606;2023-08-30T01:55:56;5.20;;;4.03;;
74495;SDS011;62979;55.720;37.606;2023-08-30T01:58:24;5.35;;;4.20;;
74495;SDS011;62979;55.720;37.606;2023-08-30T02:00:51;6.70;;;4.35;;
74495;SDS011;62979;55.720;37.606;2023-08-30T02:03:19;6.18;;;4.22;;
74495;SDS011;62979;55.720;37.606;2023-08-30T02:05:49;5.13;;;4.22;;
74495;SDS011;62979;55.720;37.606;2023-08-30T02:08:29;7.50;;;5.35;;
74495;SDS011;62979;55.720;37.606;2023-08-30T02:11:06;5.18;;;4.22;;
74495;SDS011;62979;55.720;37.606;2023-08-30T02:13:39;6.10;;;4.70;;
74495;SDS011;62979;55.720;37.606;2023-08-30T02:16:11;5.60;;;4.45;;
74495;SDS011;62979;55.720;37.606;2023-08-30T02:18:41;5.97;;;4.70;;
74495;SDS011;62979;55.720;37.606;2023-08-30T02:21:08;6.75;;;5.07;;
74495;SDS011;62979;55.720;37.606;2023-08-30T02:23:36;8.07;;;4.80;;
74495;SDS011;62979;55.720;37.606;2023-08-30T02:26:03;7.22;;;5.03;;
74495;SDS011;62979;55.720;37.606;2023-08-30T02:28:30;6.32;;;4.93;;
74495;SDS011;62979;55.720;37.606;2023-08-30T02:30:57;7.50;;;5.45;;
74495;SDS011;62979;55.720;37.606;2023-08-30T02:33:24;8.93;;;6.80;;
74495;SDS011;62979;55.720;37.606;2023-08-30T02:35:53;9.90;;;6.35;;
74495;SDS011;62979;55.720;37.606;2023-08-30T02:38:20;9.30;;;6.07;;
74495;SDS011;62979;55.720;37.606;2023-08-30T02:40:47;7.40;;;5.70;;
74495;SDS011;62979;55.720;37.606;2023-08-30T02:43:14;6.70;;;5.47;;
74495;SDS011;62979;55.720;37.606;2023-08-30T02:45:40;7.65;;;5.18;;
74495;SDS011;62979;55.720;37.606;2023-08-30T02:48:07;6.72;;;4.70;;
74495;SDS011;62979;55.720;37.606;2023-08-30T02:50:34;8.35;;;5.47;;
74495;SDS011;62979;55.720;37.606;2023-08-30T02:53:03;6.93;;;4.32;;
74495;SDS011;62979;55.720;37.606;2023-08-30T02:55:33;7.18;;;5.03;;
74495;SDS011;62979;55.720;37.606;2023-08-30T02:58:00;7.38;;;5.43;;
74495;SDS011;62979;55.720;37.606;2023-08-30T03:00:27;6.72;;;4.18;;
74495;SDS011;62979;55.720;37.606;2023-08-30T03:02:54;9.35;;;6.22;;
74495;SDS011;62979;55.720;37.606;2023-08-30T03:05:21;6.20;;;4.20;;
74495;SDS011;62979;55.720;37.606;2023-08-30T03:07:48;6.13;;;4.63;;
74495;SDS011;62979;55.720;37.606;2023-08-30T03:10:17;6.47;;;4.22;;
74495;SDS011;62979;55.720;37.606;2023-08-30T03:12:44;8.73;;;4.40;;
74495;SDS011;62979;55.720;37.606;2023-08-30T03:15:11;5.93;;;3.55;;
74495;SDS011;62979;55.720;37.606;2023-08-30T03:17:38;4.80;;;4.05;;
74495;SDS011;62979;55.720;37.606;2023-08-30T03:20:06;6.60;;;3.90;;
74495;SDS011;62979;55.720;37.606;2023-08-30T03:22:33;5.70;;;4.00;;
74495;SDS011;62979;55.720;37.606;2023-08-30T03:25:00;6.30;;;3.88;;
74495;SDS011;62979;55.720;37.606;2023-08-30T03:27:30;5.70;;;3.85;;
74495;SDS011;62979;55.720;37.606;2023-08-30T03:29:58;7.32;;;4.28;;
74495;SDS011;62979;55.720;37.606;2023-08-30T03:34:52;6.85;;;3.80;;
74495;SDS011;62979;55.720;37.606;2023-08-30T03:37:19;4.20;;;3.28;;
74495;SDS011;62979;55.720;37.606;2023-08-30T03:39:47;5.90;;;4.18;;
74495;SDS011;62979;55.720;37.606;2023-08-30T03:42:14;4.85;;;3.42;;
74495;SDS011;62979;55.720;37.606;2023-08-30T03:44:42;3.85;;;3.20;;
74495;SDS011;62979;55.720;37.606;2023-08-30T03:47:09;7.53;;;3.25;;
74495;SDS011;62979;55.720;37.606;2023-08-30T03:49:36;7.05;;;3.85;;
74495;SDS011;62979;55.720;37.606;2023-08-30T03:52:03;6.00;;;3.83;;
74495;SDS011;62979;55.720;37.606;2023-08-30T03:54:31;4.60;;;3.33;;
74495;SDS011;62979;55.720;37.606;2023-08-30T03:56:59;4.95;;;3.40;;
74495;SDS011;62979;55.720;37.606;2023-08-30T03:59:25;5.65;;;2.92;;
74495;SDS011;62979;55.720;37.606;2023-08-30T04:04:21;4.53;;;2.78;;
74495;SDS011;62979;55.720;37.606;2023-08-30T04:06:48;3.55;;;2.50;;
74495;SDS011;62979;55.720;37.606;2023-08-30T04:09:15;3.80;;;2.47;;
74495;SDS011;62979;55.720;37.606;2023-08-30T04:11:43;3.60;;;2.53;;
74495;SDS011;62979;55.720;37.606;2023-08-30T04:14:10;2.47;;;1.80;;
74495;SDS011;62979;55.720;37.606;2023-08-30T04:16:37;4.20;;;3.53;;
74495;SDS011;62979;55.720;37.606;2023-08-30T04:19:05;3.28;;;2.65;;
74495;SDS011;62979;55.720;37.606;2023-08-30T04:21:32;4.28;;;2.78;;
74495;SDS011;62979;55.720;37.606;2023-08-30T04:23:59;4.45;;;2.75;;
74495;SDS011;62979;55.720;37.606;2023-08-30T04:26:26;3.65;;;2.92;;
74495;SDS011;62979;55.720;37.606;2023-08-30T04:28:52;6.50;;;2.75;;
74495;SDS011;62979;55.720;37.606;2023-08-30T04:31:19;4.47;;;2.60;;
74495;SDS011;62979;55.720;37.606;2023-08-30T04:33:46;4.18;;;3.08;;
74495;SDS011;62979;55.720;37.606;2023-08-30T04:36:14;5.07;;;2.80;;
74495;SDS011;62979;55.720;37.606;2023-08-30T04:38:41;3.92;;;2.70;;
74495;SDS011;62979;55.720;37.606;2023-08-30T04:41:08;4.30;;;2.80;;
74495;SDS011;62979;55.720;37.606;2023-08-30T04:43:36;4.65;;;2.80;;
74495;SDS011;62979;55.720;37.606;2023-08-30T04:46:03;12.25;;;9.38;;
74495;SDS011;62979;55.720;37.606;2023-08-30T04:48:30;3.85;;;3.10;;
74495;SDS011;62979;55.720;37.606;2023-08-30T04:51:00;5.68;;;2.10;;
74495;SDS011;62979;55.720;37.606;2023-08-30T04:53:30;3.65;;;2.53;;
74495;SDS011;62979;55.720;37.606;2023-08-30T04:55:57;5.65;;;2.83;;
74495;SDS011;62979;55.720;37.606;2023-08-30T04:58:25;5.22;;;2.65;;
74495;SDS011;62979;55.720;37.606;2023-08-30T05:00:52;6.00;;;3.03;;
74495;SDS011;62979;55.720;37.606;2023-08-30T05:03:23;4.82;;;2.60;;
74495;SDS011;62979;55.720;37.606;2023-08-30T05:05:49;3.08;;;2.30;;
74495;SDS011;62979;55.720;37.606;2023-08-30T05:08:16;3.10;;;2.28;;
74495;SDS011;62979;55.720;37.606;2023-08-30T05:10:44;3.97;;;2.95;;
74495;SDS011;62979;55.720;37.606;2023-08-30T05:13:11;6.35;;;2.78;;
74495;SDS011;62979;55.720;37.606;2023-08-30T05:15:41;3.88;;;2.78;;
74495;SDS011;62979;55.720;37.606;2023-08-30T05:18:08;3.45;;;2.78;;
74495;SDS011;62979;55.720;37.606;2023-08-30T05:20:35;4.07;;;2.38;;
74495;SDS011;62979;55.720;37.606;2023-08-30T05:23:02;5.55;;;2.70;;
74495;SDS011;62979;55.720;37.606;2023-08-30T05:25:29;3.78;;;2.55;;
74495;SDS011;62979;55.720;37.606;2023-08-30T05:27:57;3.03;;;2.38;;
74495;SDS011;62979;55.720;37.606;2023-08-30T05:30:25;7.35;;;3.13;;
74495;SDS011;62979;55.720;37.606;2023-08-30T05:32:51;6.97;;;2.80;;
74495;SDS011;62979;55.720;37.606;2023-08-30T05:35:19;4.00;;;3.05;;
74495;SDS011;62979;55.720;37.606;2023-08-30T05:37:46;6.15;;;3.63;;
74495;SDS011;62979;55.720;37.606;2023-08-30T05:40:13;5.45;;;2.97;;
74495;SDS011;62979;55.720;37.606;2023-08-30T05:42:42;4.78;;;3.15;;
74495;SDS011;62979;55.720;37.606;2023-08-30T05:45:13;8.48;;;7.57;;
74495;SDS011;62979;55.720;37.606;2023-08-30T05:47:40;7.32;;;3.58;;
74495;SDS011;62979;55.720;37.606;2023-08-30T05:50:07;5.20;;;3.25;;
74495;SDS011;62979;55.720;37.606;2023-08-30T05:52:35;4.75;;;2.80;;
74495;SDS011;62979;55.720;37.606;2023-08-30T05:55:06;13.70;;;4.72;;
74495;SDS011;62979;55.720;37.606;2023-08-30T05:57:34;18.42;;;5.38;;
74495;SDS011;62979;55.720;37.606;2023-08-30T06:00:01;19.85;;;5.18;;
74495;SDS011;62979;55.720;37.606;2023-08-30T06:02:31;10.95;;;4.43;;
74495;SDS011;62979;55.720;37.606;2023-08-30T06:04:58;11.38;;;4.30;;
74495;SDS011;62979;55.720;37.606;2023-08-30T06:07:25;12.73;;;4.03;;
74495;SDS011;62979;55.720;37.606;2023-08-30T06:09:51;8.00;;;3.58;;
74495;SDS011;62979;55.720;37.606;2023-08-30T06:12:18;7.43;;;3.10;;
74495;SDS011;62979;55.720;37.606;2023-08-30T06:14:45;6.85;;;3.33;;
74495;SDS011;62979;55.720;37.606;2023-08-30T06:17:17;10.25;;;3.50;;
74495;SDS011;62979;55.720;37.606;2023-08-30T06:19:45;10.90;;;4.32;;
74495;SDS011;62979;55.720;37.606;2023-08-30T06:22:12;12.63;;;5.03;;
74495;SDS011;62979;55.720;37.606;2023-08-30T06:24:39;4.95;;;3.20;;
74495;SDS011;62979;55.720;37.606;2023-08-30T06:27:06;6.88;;;3.40;;
74495;SDS011;62979;55.720;37.606;2023-08-30T06:29:33;7.85;;;3.60;;
74495;SDS011;62979;55.720;37.606;2023-08-30T06:32:00;5.60;;;3.60;;
74495;SDS011;62979;55.720;37.606;2023-08-30T06:34:27;5.00;;;3.20;;
74495;SDS011;62979;55.720;37.606;2023-08-30T06:36:56;6.45;;;3.67;;
74495;SDS011;62979;55.720;37.606;2023-08-30T06:39:22;8.75;;;3.60;;
74495;SDS011;62979;55.720;37.606;2023-08-30T06:41:50;8.55;;;3.30;;
74495;SDS011;62979;55.720;37.606;2023-08-30T06:44:16;5.07;;;2.88;;
74495;SDS011;62979;55.720;37.606;2023-08-30T06:46:43;6.82;;;3.35;;
74495;SDS011;62979;55.720;37.606;2023-08-30T06:49:10;7.53;;;3.42;;
74495;SDS011;62979;55.720;37.606;2023-08-30T06:51:37;5.78;;;3.63;;
74495;SDS011;62979;55.720;37.606;2023-08-30T06:54:05;8.25;;;3.70;;
74495;SDS011;62979;55.720;37.606;2023-08-30T06:56:32;7.40;;;4.45;;
74495;SDS011;62979;55.720;37.606;2023-08-30T06:58:59;8.00;;;4.22;;
74495;SDS011;62979;55.720;37.606;2023-08-30T07:01:26;6.85;;;3.88;;
74495;SDS011;62979;55.720;37.606;2023-08-30T07:03:53;7.72;;;3.33;;
74495;SDS011;62979;55.720;37.606;2023-08-30T07:06:20;6.35;;;3.70;;
74495;SDS011;62979;55.720;37.606;2023-08-30T07:08:47;8.68;;;3.13;;
74495;SDS011;62979;55.720;37.606;2023-08-30T07:11:15;5.75;;;3.13;;
74495;SDS011;62979;55.720;37.606;2023-08-30T07:13:42;8.40;;;4.75;;
74495;SDS011;62979;55.720;37.606;2023-08-30T07:16:09;8.80;;;4.25;;
74495;SDS011;62979;55.720;37.606;2023-08-30T07:18:36;13.43;;;6.50;;
74495;SDS011;62979;55.720;37.606;2023-08-30T07:21:04;10.30;;;2.92;;
74495;SDS011;62979;55.720;37.606;2023-08-30T07:23:31;5.20;;;3.60;;
74495;SDS011;62979;55.720;37.606;2023-08-30T07:25:58;4.88;;;2.90;;
74495;SDS011;62979;55.720;37.606;2023-08-30T07:28:27;6.15;;;3.65;;
74495;SDS011;62979;55.720;37.606;2023-08-30T07:31:01;8.10;;;5.32;;
74495;SDS011;62979;55.720;37.606;2023-08-30T07:33:29;8.52;;;4.70;;
74495;SDS011;62979;55.720;37.606;2023-08-30T07:35:56;4.47;;;2.38;;
74495;SDS011;62979;55.720;37.606;2023-08-30T07:38:23;5.40;;;3.83;;
74495;SDS011;62979;55.720;37.606;2023-08-30T07:40:50;5.68;;;4.05;;
74495;SDS011;62979;55.720;37.606;2023-08-30T07:43:17;7.88;;;4.88;;
74495;SDS011;62979;55.720;37.606;2023-08-30T07:45:45;4.85;;;2.55;;
74495;SDS011;62979;55.720;37.606;2023-08-30T07:48:12;7.22;;;4.80;;
74495;SDS011;62979;55.720;37.606;2023-08-30T07:50:39;4.78;;;3.33;;
74495;SDS011;62979;55.720;37.606;2023-08-30T07:53:06;8.00;;;3.80;;
74495;SDS011;62979;55.720;37.606;2023-08-30T07:55:35;5.78;;;3.08;;
74495;SDS011;62979;55.720;37.606;2023-08-30T07:58:02;5.85;;;3.60;;
74495;SDS011;62979;55.720;37.606;2023-08-30T08:02:57;7.05;;;3.45;;
74495;SDS011;62979;55.720;37.606;2023-08-30T08:05:24;7.47;;;3.17;;
74495;SDS011;62979;55.720;37.606;2023-08-30T08:07:51;6.60;;;3.25;;
74495;SDS011;62979;55.720;37.606;2023-08-30T08:10:19;4.28;;;2.58;;
74495;SDS011;62979;55.720;37.606;2023-08-30T08:12:47;4.40;;;2.35;;
74495;SDS011;62979;55.720;37.606;2023-08-30T08:15:14;4.55;;;3.20;;
74495;SDS011;62979;55.720;37.606;2023-08-30T08:17:41;6.13;;;4.30;;
74495;SDS011;62979;55.720;37.606;2023-08-30T08:20:09;4.30;;;3.35;;
74495;SDS011;62979;55.720;37.606;2023-08-30T08:22:37;4.45;;;3.45;;
74495;SDS011;62979;55.720;37.606;2023-08-30T08:25:04;5.97;;;2.90;;
74495;SDS011;62979;55.720;37.606;2023-08-30T08:27:35;7.40;;;3.00;;
74495;SDS011;62979;55.720;37.606;2023-08-30T08:30:02;7.50;;;3.13;;
74495;SDS011;62979;55.720;37.606;2023-08-30T08:32:30;8.38;;;3.30;;
74495;SDS011;62979;55.720;37.606;2023-08-30T08:34:58;5.03;;;2.92;;
74495;SDS011;62979;55.720;37.606;2023-08-30T08:37:26;5.03;;;3.22;;
74495;SDS011;62979;55.720;37.606;2023-08-30T08:39:53;4.82;;;2.97;;
74495;SDS011;62979;55.720;37.606;2023-08-30T08:42:20;5.80;;;3.20;;
74495;SDS011;62979;55.720;37.606;2023-08-30T08:44:50;5.80;;;2.88;;
74495;SDS011;62979;55.720;37.606;2023-08-30T08:47:19;6.32;;;3.10;;
74495;SDS011;62979;55.720;37.606;2023-08-30T08:49:47;4.38;;;3.28;;
74495;SDS011;62979;55.720;37.606;2023-08-30T08:52:16;4.15;;;3.42;;
74495;SDS011;62979;55.720;37.606;2023-08-30T08:54:45;5.97;;;3.10;;
74495;SDS011;62979;55.720;37.606;2023-08-30T08:57:12;4.82;;;2.72;;
74495;SDS011;62979;55.720;37.606;2023-08-30T08:59:40;4.57;;;4.13;;
74495;SDS011;62979;55.720;37.606;2023-08-30T09:02:06;3.85;;;2.72;;
74495;SDS011;62979;55.720;37.606;2023-08-30T09:04:38;3.97;;;2.97;;
74495;SDS011;62979;55.720;37.606;2023-08-30T09:07:06;8.18;;;3.28;;
74495;SDS011;62979;55.720;37.606;2023-08-30T09:09:34;5.30;;;2.65;;
74495;SDS011;62979;55.720;37.606;2023-08-30T09:14:30;4.70;;;2.97;;
74495;SDS011;62979;55.720;37.606;2023-08-30T09:16:57;5.53;;;3.30;;
74495;SDS011;62979;55.720;37.606;2023-08-30T09:19:26;5.63;;;3.17;;
74495;SDS011;62979;55.720;37.606;2023-08-30T09:21:53;5.40;;;3.53;;
74495;SDS011;62979;55.720;37.606;2023-08-30T09:24:21;6.43;;;3.70;;
74495;SDS011;62979;55.720;37.606;2023-08-30T09:26:49;3.97;;;2.80;;
74495;SDS011;62979;55.720;37.606;2023-08-30T09:29:20;7.00;;;3.15;;
74495;SDS011;62979;55.720;37.606;2023-08-30T09:31:50;4.22;;;2.67;;
74495;SDS011;62979;55.720;37.606;2023-08-30T09:34:21;5.80;;;3.17;;
74495;SDS011;62979;55.720;37.606;2023-08-30T09:36:49;8.05;;;3.65;;
74495;SDS011;62979;55.720;37.606;2023-08-30T09:39:16;5.18;;;3.17;;
74495;SDS011;62979;55.720;37.606;2023-08-30T09:41:44;5.05;;;3.70;;
74495;SDS011;62979;55.720;37.606;2023-08-30T09:44:13;5.60;;;2.90;;
74495;SDS011;62979;55.720;37.606;2023-08-30T09:46:45;6.18;;;3.17;;
74495;SDS011;62979;55.720;37.606;2023-08-30T09:49:17;5.07;;;3.10;;
74495;SDS011;62979;55.720;37.606;2023-08-30T09:51:46;6.35;;;3.83;;
74495;SDS011;62979;55.720;37.606;2023-08-30T09:54:14;5.03;;;3.92;;
74495;SDS011;62979;55.720;37.606;2023-08-30T09:56:43;4.60;;;2.72;;
74495;SDS011;62979;55.720;37.606;2023-08-30T09:59:12;7.28;;;2.70;;
74495;SDS011;62979;55.720;37.606;2023-08-30T10:01:40;5.38;;;1.90;;
74495;SDS011;62979;55.720;37.606;2023-08-30T10:04:10;4.65;;;3.90;;
74495;SDS011;62979;55.720;37.606;2023-08-30T10:06:38;5.22;;;2.47;;
74495;SDS011;62979;55.720;37.606;2023-08-30T10:09:06;6.32;;;3.10;;
74495;SDS011;62979;55.720;37.606;2023-08-30T10:11:35;6.32;;;2.45;;
74495;SDS011;62979;55.720;37.606;2023-08-30T10:14:03;5.05;;;3.28;;
74495;SDS011;62979;55.720;37.606;2023-08-30T10:16:33;4.20;;;2.92;;
74495;SDS011;62979;55.720;37.606;2023-08-30T10:19:11;2.47;;;2.28;;
74495;SDS011;62979;55.720;37.606;2023-08-30T10:21:41;5.05;;;3.10;;
74495;SDS011;62979;55.720;37.606;2023-08-30T10:24:11;5.60;;;2.63;;
74495;SDS011;62979;55.720;37.606;2023-08-30T10:26:42;5.05;;;2.30;;
74495;SDS011;62979;55.720;37.606;2023-08-30T10:29:12;3.65;;;2.78;;
74495;SDS011;62979;55.720;37.606;2023-08-30T10:31:42;5.10;;;2.72;;
74495;SDS011;62979;55.720;37.606;2023-08-30T10:34:15;4.20;;;3.90;;
74495;SDS011;62979;55.720;37.606;2023-08-30T10:36:44;5.35;;;2.58;;
74495;SDS011;62979;55.720;37.606;2023-08-30T10:39:11;5.45;;;2.85;;
74495;SDS011;62979;55.720;37.606;2023-08-30T10:41:53;5.03;;;3.58;;
74495;SDS011;62979;55.720;37.606;2023-08-30T10:44:23;3.15;;;2.85;;
74495;SDS011;62979;55.720;37.606;2023-08-30T10:46:53;4.35;;;3.03;;
74495;SDS011;62979;55.720;37.606;2023-08-30T10:49:22;3.42;;;2.63;;
74495;SDS011;62979;55.720;37.606;2023-08-30T10:51:54;5.03;;;3.30;;
74495;SDS011;62979;55.720;37.606;2023-08-30T10:54:24;3.75;;;3.17;;
74495;SDS011;62979;55.720;37.606;2023-08-30T10:56:54;6.07;;;2.60;;
74495;SDS011;62979;55.720;37.606;2023-08-30T10:59:25;4.80;;;2.65;;
74495;SDS011;62979;55.720;37.606;2023-08-30T11:01:54;3.70;;;3.30;;
74495;SDS011;62979;55.720;37.606;2023-08-30T11:04:23;4.28;;;2.90;;
74495;SDS011;62979;55.720;37.606;2023-08-30T11:06:51;4.72;;;3.55;;
74495;SDS011;62979;55.720;37.606;2023-08-30T11:09:18;5.20;;;4.25;;
74495;SDS011;62979;55.720;37.606;2023-08-30T11:11:48;4.15;;;3.22;;
74495;SDS011;62979;55.720;37.606;2023-08-30T11:14:17;3.67;;;3.15;;
74495;SDS011;62979;55.720;37.606;2023-08-30T11:16:45;5.03;;;3.72;;
74495;SDS011;62979;55.720;37.606;2023-08-30T11:21:42;3.92;;;3.63;;
74495;SDS011;62979;55.720;37.606;2023-08-30T11:24:11;4.00;;;3.47;;
74495;SDS011;62979;55.720;37.606;2023-08-30T11:26:38;5.03;;;2.97;;
74495;SDS011;62979;55.720;37.606;2023-08-30T11:29:05;5.63;;;4.03;;
74495;SDS011;62979;55.720;37.606;2023-08-30T11:31:33;5.53;;;2.65;;
74495;SDS011;62979;55.720;37.606;2023-08-30T11:34:01;4.82;;;3.58;;
74495;SDS011;62979;55.720;37.606;2023-08-30T11:36:29;4.20;;;3.83;;
74495;SDS011;62979;55.720;37.606;2023-08-30T11:38:59;4.60;;;4.20;;
74495;SDS011;62979;55.720;37.606;2023-08-30T11:41:26;4.38;;;3.85;;
74495;SDS011;62979;55.720;37.606;2023-08-30T11:46:21;4.10;;;3.42;;
74495;SDS011;62979;55.720;37.606;2023-08-30T11:48:48;4.95;;;4.53;;
74495;SDS011;62979;55.720;37.606;2023-08-30T11:51:18;6.78;;;4.28;;
74495;SDS011;62979;55.720;37.606;2023-08-30T11:53:44;4.55;;;4.00;;
74495;SDS011;62979;55.720;37.606;2023-08-30T11:56:13;6.53;;;4.57;;
74495;SDS011;62979;55.720;37.606;2023-08-30T11:58:41;5.00;;;3.75;;
74495;SDS011;62979;55.720;37.606;2023-08-30T12:01:09;6.95;;;4.90;;
74495;SDS011;62979;55.720;37.606;2023-08-30T12:03:37;5.50;;;4.60;;
74495;SDS011;62979;55.720;37.606;2023-08-30T12:06:08;5.47;;;4.97;;
74495;SDS011;62979;55.720;37.606;2023-08-30T12:08:37;4.72;;;4.00;;
74495;SDS011;62979;55.720;37.606;2023-08-30T12:11:04;8.32;;;4.53;;
74495;SDS011;62979;55.720;37.606;2023-08-30T12:13:33;4.13;;;3.63;;
74495;SDS011;62979;55.720;37.606;2023-08-30T12:16:01;4.68;;;4.03;;
74495;SDS011;62979;55.720;37.606;2023-08-30T12:18:31;4.90;;;3.78;;
74495;SDS011;62979;55.720;37.606;2023-08-30T12:20:59;5.65;;;4.10;;
74495;SDS011;62979;55.720;37.606;2023-08-30T12:23:28;5.05;;;3.53;;
74495;SDS011;62979;55.720;37.606;2023-08-30T12:25:57;3.47;;;3.05;;
74495;SDS011;62979;55.720;37.606;2023-08-30T12:28:26;5.10;;;2.95;;
74495;SDS011;62979;55.720;37.606;2023-08-30T12:30:56;5.97;;;3.88;;
74495;SDS011;62979;55.720;37.606;2023-08-30T12:33:24;4.82;;;3.83;;
74495;SDS011;62979;55.720;37.606;2023-08-30T12:35:52;7.28;;;3.17;;
74495;SDS011;62979;55.720;37.606;2023-08-30T12:38:19;4.93;;;3.25;;
74495;SDS011;62979;55.720;37.606;2023-08-30T12:40:47;4.38;;;2.75;;
74495;SDS011;62979;55.720;37.606;2023-08-30T12:43:15;4.28;;;2.60;;
74495;SDS011;62979;55.720;37.606;2023-08-30T12:45:43;6.45;;;3.30;;
74495;SDS011;62979;55.720;37.606;2023-08-30T12:48:12;7.47;;;3.58;;
74495;SDS011;62979;55.720;37.606;2023-08-30T12:50:42;5.40;;;3.22;;
74495;SDS011;62979;55.720;37.606;2023-08-30T12:53:11;7.13;;;2.65;;
74495;SDS011;62979;55.720;37.606;2023-08-30T12:55:38;3.05;;;2.50;;
74495;SDS011;62979;55.720;37.606;2023-08-30T12:58:05;6.70;;;2.58;;
74495;SDS011;62979;55.720;37.606;2023-08-30T13:00:33;6.05;;;2.90;;
74495;SDS011;62979;55.720;37.606;2023-08-30T13:03:01;4.18;;;2.95;;
74495;SDS011;62979;55.720;37.606;2023-08-30T13:05:30;4.40;;;2.95;;
74495;SDS011;62979;55.720;37.606;2023-08-30T13:07:57;4.63;;;4.05;;
74495;SDS011;62979;55.720;37.606;2023-08-30T13:10:24;6.85;;;4.22;;
74495;SDS011;62979;55.720;37.606;2023-08-30T13:12:51;4.85;;;3.53;;
74495;SDS011;62979;55.720;37.606;2023-08-30T13:15:18;6.60;;;3.08;;
74495;SDS011;62979;55.720;37.606;2023-08-30T13:20:12;7.55;;;3.53;;
74495;SDS011;62979;55.720;37.606;2023-08-30T13:25:07;4.82;;;2.90;;
74495;SDS011;62979;55.720;37.606;2023-08-30T13:27:34;7.90;;;3.47;;
74495;SDS011;62979;55.720;37.606;2023-08-30T13:30:02;5.70;;;3.95;;
74495;SDS011;62979;55.720;37.606;2023-08-30T13:32:29;7.00;;;4.90;;
74495;SDS011;62979;55.720;37.606;2023-08-30T13:34:56;8.07;;;3.50;;
74495;SDS011;62979;55.720;37.606;2023-08-30T13:37:24;6.15;;;3.15;;
74495;SDS011;62979;55.720;37.606;2023-08-30T13:39:53;5.45;;;3.78;;
74495;SDS011;62979;55.720;37.606;2023-08-30T13:42:20;6.07;;;3.05;;
74495;SDS011;62979;55.720;37.606;2023-08-30T13:44:49;6.15;;;3.65;;
74495;SDS011;62979;55.720;37.606;2023-08-30T13:47:17;6.40;;;3.72;;
74495;SDS011;62979;55.720;37.606;2023-08-30T13:49:45;4.32;;;2.70;;
74495;SDS011;62979;55.720;37.606;2023-08-30T13:52:12;7.43;;;3.42;;
74495;SDS011;62979;55.720;37.606;2023-08-30T13:54:39;5.53;;;4.00;;
74495;SDS011;62979;55.720;37.606;2023-08-30T13:59:34;6.03;;;3.75;;
74495;SDS011;62979;55.720;37.606;2023-08-30T14:02:02;6.07;;;3.53;;
74495;SDS011;62979;55.720;37.606;2023-08-30T14:04:29;4.85;;;2.95;;
74495;SDS011;62979;55.720;37.606;2023-08-30T14:06:58;9.63;;;3.28;;
74495;SDS011;62979;55.720;37.606;2023-08-30T14:09:25;8.98;;;3.40;;
74495;SDS011;62979;55.720;37.606;2023-08-30T14:14:21;6.10;;;3.47;;
74495;SDS011;62979;55.720;37.606;2023-08-30T14:16:48;7.40;;;3.92;;
74495;SDS011;62979;55.720;37.606;2023-08-30T14:19:15;9.50;;;3.75;;
74495;SDS011;62979;55.720;37.606;2023-08-30T14:21:43;7.57;;;3.38;;
74495;SDS011;62979;55.720;37.606;2023-08-30T14:24:10;7.13;;;3.17;;
74495;SDS011;62979;55.720;37.606;2023-08-30T14:26:37;5.22;;;2.90;;
74495;SDS011;62979;55.720;37.606;2023-08-30T14:31:32;10.20;;;3.20;;
74495;SDS011;62979;55.720;37.606;2023-08-30T14:33:59;6.97;;;2.83;;
74495;SDS011;62979;55.720;37.606;2023-08-30T14:36:25;5.47;;;3.20;;
74495;SDS011;62979;55.720;37.606;2023-08-30T14:38:52;5.40;;;2.97;;
74495;SDS011;62979;55.720;37.606;2023-08-30T14:43:46;6.82;;;3.13;;
74495;SDS011;62979;55.720;37.606;2023-08-30T14:46:13;9.23;;;3.22;;
74495;SDS011;62979;55.720;37.606;2023-08-30T14:48:42;8.13;;;3.25;;
74495;SDS011;62979;55.720;37.606;2023-08-30T14:51:09;5.53;;;3.40;;
74495;SDS011;62979;55.720;37.606;2023-08-30T14:53:36;8.45;;;2.97;;
74495;SDS011;62979;55.720;37.606;2023-08-30T14:56:03;4.65;;;2.75;;
74495;SDS011;62979;55.720;37.606;2023-08-30T14:58:32;3.88;;;3.35;;
74495;SDS011;62979;55.720;37.606;2023-08-30T15:01:00;7.47;;;3.22;;
74495;SDS011;62979;55.720;37.606;2023-08-30T15:03:27;9.25;;;3.85;;
74495;SDS011;62979;55.720;37.606;2023-08-30T15:05:56;10.15;;;3.85;;
74495;SDS011;62979;55.720;37.606;2023-08-30T15:08:23;5.95;;;3.30;;
74495;SDS011;62979;55.720;37.606;2023-08-30T15:10:51;7.90;;;3.58;;